createdAt,value
2023-03-17T00:51:19.272Z,2.83
2023-03-17T00:53:46.010Z,3.20
2023-03-17T00:56:19.237Z,2.80
2023-03-17T00:58:47.531Z,2.80
2023-03-17T01:01:14.801Z,2.90
2023-03-17T01:03:41.705Z,2.70
2023-03-17T01:06:12.485Z,2.80
2023-03-17T01:08:40.926Z,2.50
2023-03-17T01:11:18.719Z,2.70
2023-03-17T01:13:45.597Z,2.50
2023-03-17T01:16:12.978Z,2.50
2023-03-17T01:18:39.938Z,2.30
2023-03-17T01:21:06.799Z,2.57
2023-03-17T01:23:33.917Z,2.20
2023-03-17T01:26:00.680Z,2.20
2023-03-17T01:28:28.198Z,2.30
2023-03-17T01:30:55.480Z,2.30
2023-03-17T01:33:22.234Z,2.70
2023-03-17T01:35:51.134Z,1.90
2023-03-17T01:38:18.752Z,2.10
2023-03-17T01:40:48.144Z,2.00
2023-03-17T01:43:29.382Z,1.77
2023-03-17T01:46:17.985Z,1.87
2023-03-17T01:49:01.552Z,2.30
2023-03-17T01:51:51.820Z,2.07
2023-03-17T01:55:11.235Z,1.87
2023-03-17T01:58:15.284Z,2.00
2023-03-17T02:00:42.469Z,1.87
2023-03-17T02:03:09.752Z,1.90
2023-03-17T02:05:38.394Z,2.00
2023-03-17T02:08:13.730Z,1.90
2023-03-17T02:10:42.028Z,1.80
2023-03-17T02:13:11.570Z,1.80
2023-03-17T02:16:05.462Z,1.93
2023-03-17T02:18:32.237Z,1.70
2023-03-17T02:21:38.688Z,1.63
2023-03-17T02:24:13.494Z,1.80
2023-03-17T02:26:40.670Z,1.70
2023-03-17T02:29:11.023Z,1.70
2023-03-17T02:31:37.906Z,1.60
2023-03-17T02:34:04.721Z,1.90
2023-03-17T02:36:33.964Z,1.87
2023-03-17T02:39:01.538Z,1.40
2023-03-17T02:41:29.531Z,1.50
2023-03-17T02:43:56.912Z,1.70
2023-03-17T02:46:23.630Z,1.63
2023-03-17T02:48:53.467Z,1.63
2023-03-17T02:51:20.273Z,1.93
2023-03-17T02:53:47.035Z,1.60
2023-03-17T02:56:13.844Z,1.63
2023-03-17T02:58:40.607Z,1.50
2023-03-17T03:01:09.016Z,1.47
2023-03-17T03:03:36.306Z,1.50
2023-03-17T03:06:03.428Z,1.50
2023-03-17T03:08:30.261Z,1.67
2023-03-17T03:11:02.460Z,1.70
2023-03-17T03:13:29.372Z,1.70
2023-03-17T03:15:56.272Z,1.53
2023-03-17T03:18:23.676Z,2.10
2023-03-17T03:20:50.373Z,1.60
2023-03-17T03:23:17.138Z,1.77
2023-03-17T03:25:43.853Z,1.83
2023-03-17T03:28:10.593Z,1.80
2023-03-17T03:30:37.802Z,1.90
2023-03-17T03:33:05.217Z,1.60
2023-03-17T03:35:32.479Z,1.30
2023-03-17T03:38:00.049Z,1.60
2023-03-17T03:40:27.066Z,1.67
2023-03-17T03:42:54.188Z,1.70
2023-03-17T03:45:21.160Z,1.50
2023-03-17T03:47:47.898Z,1.80
2023-03-17T03:50:14.646Z,1.53
2023-03-17T03:52:41.550Z,2.20
2023-03-17T03:55:08.932Z,2.30
2023-03-17T03:57:35.855Z,2.07
2023-03-17T04:00:04.982Z,2.00
2023-03-17T04:02:31.938Z,2.03
2023-03-17T04:04:58.705Z,2.20
2023-03-17T04:07:25.706Z,2.10
2023-03-17T04:09:52.405Z,2.40
2023-03-17T04:12:19.235Z,1.70
2023-03-17T04:14:46.082Z,1.70
2023-03-17T04:17:14.576Z,1.70
2023-03-17T04:19:41.369Z,2.07
2023-03-17T04:22:10.322Z,2.17
2023-03-17T04:24:37.136Z,2.30
2023-03-17T04:27:05.931Z,1.67
2023-03-17T04:29:32.932Z,2.03
2023-03-17T04:31:59.749Z,1.90
2023-03-17T04:34:27.269Z,1.90
2023-03-17T04:36:54.143Z,1.97
2023-03-17T04:39:20.923Z,1.90
2023-03-17T04:41:47.619Z,2.17
2023-03-17T04:44:14.434Z,2.80
2023-03-17T04:46:42.076Z,2.13
2023-03-17T04:49:09.496Z,1.60
2023-03-17T04:51:36.876Z,1.30
2023-03-17T04:54:03.941Z,1.70
2023-03-17T04:56:31.966Z,1.70
2023-03-17T04:58:58.952Z,1.70
2023-03-17T05:01:26.288Z,1.80
2023-03-17T05:03:53.151Z,1.77
2023-03-17T05:06:20.068Z,1.40
2023-03-17T05:08:46.931Z,1.67
2023-03-17T05:11:14.382Z,1.33
2023-03-17T05:13:41.369Z,1.30
2023-03-17T05:16:09.259Z,1.37
2023-03-17T05:18:37.210Z,1.30
2023-03-17T05:21:05.408Z,1.50
2023-03-17T05:23:32.339Z,1.40
2023-03-17T05:25:59.337Z,1.30
2023-03-17T05:28:26.780Z,1.40
2023-03-17T05:30:54.210Z,1.83
2023-03-17T05:33:21.776Z,1.30
2023-03-17T05:35:48.679Z,1.40
2023-03-17T05:38:16.102Z,1.33
2023-03-17T05:40:43.401Z,1.63
2023-03-17T05:43:10.305Z,1.63
2023-03-17T05:45:37.656Z,1.50
2023-03-17T05:48:04.879Z,1.63
2023-03-17T05:50:32.482Z,1.40
2023-03-17T05:52:59.529Z,1.40
2023-03-17T05:55:26.526Z,1.53
2023-03-17T05:57:53.632Z,1.70
2023-03-17T06:00:21.536Z,1.57
2023-03-17T06:02:48.369Z,1.90
2023-03-17T06:05:15.230Z,1.77
2023-03-17T06:07:53.125Z,1.60
2023-03-17T06:10:23.289Z,1.37
2023-03-17T06:12:50.025Z,1.50
2023-03-17T06:15:17.171Z,1.33
2023-03-17T06:17:43.963Z,1.63
2023-03-17T06:20:11.777Z,1.40
2023-03-17T06:22:46.302Z,1.30
2023-03-17T06:25:18.913Z,1.50
2023-03-17T06:27:45.637Z,1.40
2023-03-17T06:30:13.263Z,1.30
2023-03-17T06:32:40.337Z,1.33
2023-03-17T06:35:07.492Z,1.47
2023-03-17T06:37:35.658Z,1.53
2023-03-17T06:40:04.333Z,1.50
2023-03-17T06:42:31.525Z,1.60
2023-03-17T06:44:58.251Z,3.60
2023-03-17T06:47:26.103Z,3.27
2023-03-17T06:49:53.796Z,1.87
2023-03-17T22:53:36.760Z,3.70
2023-03-17T22:56:04.917Z,3.53
2023-03-17T22:58:31.841Z,3.80
2023-03-17T23:00:58.858Z,3.80
2023-03-17T23:03:27.233Z,3.70
2023-03-17T23:05:58.300Z,3.30
2023-03-17T23:08:27.789Z,3.53
2023-03-17T23:10:55.993Z,3.47
2023-03-17T23:13:24.157Z,3.40
2023-03-17T23:15:51.625Z,3.47
2023-03-17T23:18:18.380Z,3.77
2023-03-17T23:20:45.766Z,3.40
2023-03-17T23:23:13.207Z,3.50
2023-03-17T23:25:40.197Z,3.10
2023-03-17T23:28:07.693Z,3.40
2023-03-17T23:30:36.427Z,3.40
2023-03-17T23:33:04.817Z,3.70
2023-03-17T23:35:32.168Z,3.40
2023-03-17T23:37:59.696Z,3.00
2023-03-17T23:40:26.406Z,3.33
2023-03-17T23:42:55.053Z,3.17
2023-03-17T23:45:23.230Z,3.40
2023-03-17T23:47:52.068Z,3.63
2023-03-17T23:50:20.969Z,3.10
2023-03-17T23:52:48.120Z,3.07
2023-03-17T23:55:16.767Z,3.53
2023-03-17T23:57:44.258Z,2.93
